createdAt,value
2022-08-17T00:00:15.758Z,2.42
2022-08-17T00:03:14.429Z,2.47
2022-08-17T00:05:49.593Z,2.58
2022-08-17T00:08:19.126Z,2.17
2022-08-17T00:10:47.614Z,1.85
2022-08-17T00:13:24.799Z,1.65
2022-08-17T00:15:55.690Z,1.88
2022-08-17T00:19:00.958Z,1.80
2022-08-17T00:21:11.367Z,1.70
2022-08-17T00:23:44.471Z,1.92
2022-08-17T00:26:43.512Z,2.22
2022-08-17T00:29:05.976Z,2.22
2022-08-17T00:31:33.085Z,1.58
2022-08-17T00:34:00.084Z,1.70
2022-08-17T00:36:27.188Z,2.38
2022-08-17T00:38:54.261Z,2.28
2022-08-17T00:41:25.029Z,1.50
2022-08-17T00:43:55.641Z,2.42
2022-08-17T00:46:39.521Z,2.00
2022-08-17T00:49:07.382Z,2.00
2022-08-17T00:51:37.294Z,1.30
2022-08-17T00:54:30.321Z,2.20
2022-08-17T00:56:59.227Z,1.83
2022-08-17T00:59:31.083Z,2.03
2022-08-17T01:01:58.550Z,1.92
2022-08-17T01:04:27.777Z,1.58
2022-08-17T01:06:56.847Z,2.13
2022-08-17T01:09:24.160Z,1.60
2022-08-17T01:11:52.388Z,1.83
2022-08-17T01:14:22.437Z,1.60
2022-08-17T01:16:52.322Z,1.63
2022-08-17T01:19:23.533Z,2.50
2022-08-17T01:22:07.425Z,1.50
2022-08-17T01:24:36.973Z,1.75
2022-08-17T01:27:10.402Z,1.40
2022-08-17T01:29:40.114Z,1.52
2022-08-17T01:32:07.746Z,1.48
2022-08-17T01:34:43.516Z,1.17
2022-08-17T01:37:17.916Z,1.30
2022-08-17T01:39:53.893Z,1.60
2022-08-17T01:42:39.591Z,1.60
2022-08-17T01:45:15.229Z,1.25
2022-08-17T01:47:42.206Z,1.60
2022-08-17T01:50:16.610Z,1.60
2022-08-17T01:52:45.489Z,1.73
2022-08-17T01:55:16.214Z,1.90
2022-08-17T01:57:45.575Z,0.93
2022-08-17T02:00:14.129Z,1.80
2022-08-17T02:02:41.852Z,1.90
2022-08-17T02:05:09.257Z,1.63
2022-08-17T02:07:55.975Z,1.45
2022-08-17T02:10:23.874Z,1.92
2022-08-17T02:13:02.069Z,1.80
2022-08-17T02:15:29.281Z,1.85
2022-08-17T02:17:56.214Z,1.27
2022-08-17T02:20:42.032Z,1.17
2022-08-17T02:23:11.945Z,1.00
2022-08-17T02:25:40.476Z,1.83
2022-08-17T02:28:07.452Z,1.45
2022-08-17T02:31:02.253Z,1.95
2022-08-17T02:33:22.193Z,1.73
2022-08-17T02:35:49.085Z,2.10
2022-08-17T02:38:16.016Z,1.80
2022-08-17T02:40:43.064Z,1.42
2022-08-17T02:43:13.783Z,2.00
2022-08-17T02:45:40.710Z,1.73
2022-08-17T02:48:07.926Z,1.70
2022-08-17T02:50:34.903Z,1.15
2022-08-17T02:53:02.878Z,2.20
2022-08-17T02:55:37.640Z,1.90
2022-08-17T02:58:04.923Z,1.77
2022-08-17T03:00:35.293Z,1.73
2022-08-17T03:03:04.806Z,1.63
2022-08-17T03:05:35.053Z,1.40
2022-08-17T03:08:02.705Z,1.80
2022-08-17T03:10:29.920Z,1.55
2022-08-17T03:12:57.524Z,1.27
2022-08-17T03:15:26.650Z,1.27
2022-08-17T03:17:55.301Z,1.88
2022-08-17T03:20:22.826Z,1.85
2022-08-17T03:22:53.300Z,2.15
2022-08-17T03:25:44.153Z,1.30
2022-08-17T03:28:16.948Z,1.80
2022-08-17T03:30:43.909Z,1.58
2022-08-17T03:33:11.579Z,1.50
2022-08-17T03:35:40.528Z,1.95
2022-08-17T03:38:12.559Z,1.20
2022-08-17T03:40:58.980Z,1.40
2022-08-17T03:43:31.280Z,2.30
2022-08-17T03:46:27.753Z,1.55
2022-08-17T03:49:14.405Z,1.27
2022-08-17T03:52:00.181Z,1.88
2022-08-17T03:54:45.484Z,1.77
2022-08-17T03:57:12.744Z,0.90
2022-08-17T03:59:40.959Z,1.02
2022-08-17T04:02:18.293Z,0.90
2022-08-17T04:04:45.253Z,1.40
2022-08-17T04:07:12.271Z,0.90
2022-08-17T04:09:39.170Z,1.20
2022-08-17T04:12:06.355Z,0.70
2022-08-17T04:14:37.875Z,1.13
2022-08-17T04:17:22.566Z,0.68
2022-08-17T04:19:49.496Z,0.52
2022-08-17T04:22:33.155Z,1.02
2022-08-17T04:25:20.527Z,0.75
2022-08-17T04:27:48.819Z,0.75
2022-08-17T04:30:18.696Z,0.90
2022-08-17T04:33:04.769Z,0.57
2022-08-17T04:35:37.087Z,0.30
2022-08-17T04:38:04.409Z,0.60
2022-08-17T04:40:49.625Z,0.60
2022-08-17T04:43:19.367Z,0.90
2022-08-17T04:45:55.023Z,0.80
2022-08-17T04:48:29.818Z,0.80
2022-08-17T04:51:05.935Z,0.75
2022-08-17T04:53:32.869Z,0.80
2022-08-17T04:55:59.800Z,0.38
2022-08-17T04:58:26.811Z,0.60
2022-08-17T05:00:53.848Z,0.50
2022-08-17T05:03:20.786Z,0.77
2022-08-17T05:05:49.709Z,0.73
2022-08-17T05:08:19.354Z,0.80
2022-08-17T05:10:47.831Z,0.55
2022-08-17T05:13:18.829Z,0.85
2022-08-17T05:15:48.103Z,0.22
2022-08-17T05:18:17.523Z,0.60
2022-08-17T05:20:44.994Z,0.50
2022-08-17T05:23:14.977Z,0.50
2022-08-17T05:25:47.901Z,1.15
2022-08-17T05:28:16.893Z,0.47
2022-08-17T05:30:48.686Z,0.60
2022-08-17T05:33:23.473Z,0.73
2022-08-17T05:35:53.961Z,0.47
2022-08-17T05:38:23.506Z,1.02
2022-08-17T05:40:50.778Z,0.50
2022-08-17T05:43:22.446Z,1.15
2022-08-17T05:46:06.406Z,0.77
2022-08-17T05:48:43.929Z,0.45
2022-08-17T05:51:19.861Z,0.60
2022-08-17T05:54:09.666Z,0.60
2022-08-17T05:57:01.304Z,0.50
2022-08-17T05:59:34.129Z,0.77
2022-08-17T06:02:13.245Z,0.80
2022-08-17T06:04:52.187Z,0.85
2022-08-17T06:07:31.813Z,0.77
2022-08-17T06:10:23.797Z,0.68
2022-08-17T06:13:05.435Z,0.50
2022-08-17T06:16:01.937Z,0.65
2022-08-17T06:18:36.674Z,1.05
2022-08-17T06:21:06.810Z,0.70
2022-08-17T06:23:41.678Z,1.63
2022-08-17T06:26:42.793Z,1.05
2022-08-17T06:29:50.813Z,0.73
2022-08-17T06:34:45.724Z,0.80
2022-08-17T06:37:37.298Z,0.90
2022-08-17T06:40:16.120Z,0.93
2022-08-17T06:43:27.761Z,1.00
2022-08-17T06:46:01.783Z,0.70
2022-08-17T06:48:52.372Z,0.90
2022-08-17T06:51:29.002Z,0.93
2022-08-17T06:54:00.365Z,1.00
2022-08-17T06:56:53.372Z,0.98
2022-08-17T06:59:55.185Z,0.93
2022-08-17T07:02:51.610Z,1.00
2022-08-17T07:05:24.167Z,1.10
2022-08-17T07:08:05.951Z,1.00
2022-08-17T07:10:48.793Z,0.80
2022-08-17T07:13:21.730Z,1.08
2022-08-17T07:15:56.432Z,0.90
2022-08-17T07:18:29.946Z,0.80
2022-08-17T07:21:05.236Z,0.80
2022-08-17T07:23:48.677Z,0.80
2022-08-17T07:26:15.619Z,0.90
2022-08-17T07:28:44.767Z,0.80
2022-08-17T07:31:14.186Z,0.98
2022-08-17T07:34:03.603Z,0.90
2022-08-17T07:36:33.941Z,1.00
2022-08-17T07:39:03.742Z,0.93
2022-08-17T07:41:53.533Z,1.05
2022-08-17T07:44:26.563Z,1.08
2022-08-17T07:47:12.947Z,0.90
2022-08-17T07:49:46.162Z,0.90
2022-08-17T07:52:48.454Z,0.75
2022-08-17T07:55:35.086Z,0.88
2022-08-17T07:58:03.431Z,0.73
2022-08-17T08:00:32.410Z,0.70
2022-08-17T08:03:13.349Z,0.90
2022-08-17T08:05:50.941Z,0.90
2022-08-17T08:08:23.727Z,0.70
2022-08-17T08:11:18.014Z,0.98
2022-08-17T08:13:46.064Z,1.15
2022-08-17T08:16:27.676Z,0.90
2022-08-17T08:19:01.145Z,0.80
2022-08-17T08:21:57.154Z,0.80
2022-08-17T08:24:48.203Z,0.75
2022-08-17T08:27:16.050Z,0.77
2022-08-17T08:30:05.982Z,0.82
2022-08-17T08:32:59.242Z,0.82
2022-08-17T08:35:35.087Z,0.90
2022-08-17T08:38:30.242Z,0.90
2022-08-17T08:41:16.252Z,0.93
2022-08-17T08:44:03.794Z,0.90
2022-08-17T08:47:00.801Z,0.90
2022-08-17T08:52:53.486Z,1.20
2022-08-17T08:55:26.624Z,0.82
2022-08-17T08:58:07.863Z,0.82
2022-08-17T09:00:58.646Z,1.08
2022-08-17T09:03:52.742Z,0.90
2022-08-17T09:06:52.596Z,1.00
2022-08-17T09:09:29.339Z,0.80
2022-08-17T09:12:08.566Z,1.20
2022-08-17T09:14:47.276Z,0.90
2022-08-17T09:17:25.428Z,0.90
2022-08-17T09:19:58.719Z,0.70
2022-08-17T09:22:56.021Z,1.25
2022-08-17T09:25:29.077Z,0.85
2022-08-17T09:28:13.645Z,1.40
2022-08-17T09:30:45.589Z,1.13
2022-08-17T09:33:17.752Z,0.90
2022-08-17T09:36:13.029Z,1.00
2022-08-17T09:38:41.677Z,1.10
2022-08-17T09:41:08.511Z,1.05
2022-08-17T09:43:56.953Z,0.90
2022-08-17T09:46:44.658Z,0.70
2022-08-17T09:49:15.109Z,0.73
2022-08-17T09:51:48.754Z,0.63
2022-08-17T09:54:41.756Z,0.80
2022-08-17T09:57:42.544Z,1.00
2022-08-17T10:00:32.670Z,0.65
2022-08-17T10:03:37.334Z,0.80
2022-08-17T10:06:27.208Z,0.90
2022-08-17T10:09:03.156Z,1.30
2022-08-17T10:14:38.094Z,0.80
2022-08-17T10:17:38.111Z,0.98
2022-08-17T10:20:29.413Z,1.00
2022-08-17T10:23:41.220Z,0.88
2022-08-17T10:26:14.250Z,1.02
2022-08-17T10:28:53.430Z,0.95
2022-08-17T10:31:36.292Z,1.20
2022-08-17T10:34:41.052Z,1.10
2022-08-17T10:37:36.966Z,1.08
2022-08-17T10:40:24.677Z,1.27
2022-08-17T10:42:59.894Z,0.98
2022-08-17T10:45:34.591Z,0.88
2022-08-17T10:48:06.282Z,1.10
2022-08-17T10:50:43.177Z,0.90
2022-08-17T10:53:10.671Z,0.93
2022-08-17T10:55:39.176Z,1.00
2022-08-17T10:58:22.137Z,1.17
2022-08-17T11:00:55.353Z,0.80
2022-08-17T11:03:25.347Z,1.08
2022-08-17T11:06:01.654Z,0.95
2022-08-17T11:09:06.493Z,1.00
2022-08-17T11:11:52.547Z,0.98
2022-08-17T11:14:58.037Z,0.90
2022-08-17T11:17:49.803Z,1.20
2022-08-17T11:20:46.103Z,1.35
2022-08-17T11:23:36.306Z,1.20
2022-08-17T11:26:17.642Z,0.85
2022-08-17T11:28:52.754Z,1.10
2022-08-17T11:31:38.474Z,1.10
2022-08-17T11:34:19.262Z,1.17
2022-08-17T11:36:56.097Z,1.08
2022-08-17T11:39:44.897Z,1.42
2022-08-17T11:42:38.665Z,1.10
2022-08-17T11:45:37.279Z,1.60
2022-08-17T11:49:05.031Z,1.00
2022-08-17T11:52:01.152Z,1.10
2022-08-17T11:54:33.210Z,0.90
2022-08-17T11:57:21.716Z,1.17
2022-08-17T11:59:48.577Z,1.50
2022-08-17T12:02:35.067Z,1.40
2022-08-17T12:05:26.522Z,1.25
2022-08-17T12:08:11.658Z,1.52
2022-08-17T12:10:54.477Z,1.40
2022-08-17T12:13:23.856Z,1.08
2022-08-17T12:15:58.527Z,1.20
2022-08-17T12:18:35.903Z,1.50
2022-08-17T12:21:45.135Z,1.02
2022-08-17T12:24:35.453Z,1.00
2022-08-17T12:27:04.934Z,1.05
2022-08-17T12:29:35.689Z,1.20
2022-08-17T12:32:07.376Z,1.02
2022-08-17T12:34:41.391Z,1.20
2022-08-17T12:37:21.420Z,1.15
2022-08-17T12:39:52.729Z,0.98
2022-08-17T12:42:26.506Z,1.60
2022-08-17T12:44:53.490Z,0.85
2022-08-17T12:47:22.768Z,0.88
2022-08-17T12:49:53.202Z,1.48
2022-08-17T12:52:20.111Z,1.02
2022-08-17T12:54:54.618Z,1.20
2022-08-17T12:57:21.950Z,0.80
2022-08-17T12:59:58.602Z,1.30
2022-08-17T13:02:29.522Z,1.27
2022-08-17T13:05:00.187Z,1.42
2022-08-17T13:07:35.253Z,1.00
2022-08-17T13:10:02.624Z,1.10
2022-08-17T13:12:32.465Z,1.00
2022-08-17T13:15:00.492Z,0.90
2022-08-17T13:17:34.812Z,1.10
2022-08-17T13:20:03.644Z,0.90
2022-08-17T13:22:32.542Z,1.10
2022-08-17T13:25:07.106Z,1.40
2022-08-17T13:27:34.319Z,1.30
2022-08-17T13:30:07.316Z,1.00
2022-08-17T13:32:37.913Z,1.10
2022-08-17T13:35:28.437Z,0.98
2022-08-17T13:38:01.376Z,1.00
2022-08-17T13:40:50.235Z,1.10
2022-08-17T13:43:36.402Z,1.20
2022-08-17T13:46:11.147Z,0.90
2022-08-17T13:48:38.501Z,1.08
2022-08-17T13:51:13.146Z,1.00
2022-08-17T13:53:40.548Z,0.80
2022-08-17T13:56:37.204Z,1.20
2022-08-17T13:59:36.002Z,0.90
2022-08-17T14:02:20.763Z,1.20
2022-08-17T14:04:48.924Z,1.05
2022-08-17T14:07:16.149Z,1.00
2022-08-17T14:10:10.295Z,1.10
2022-08-17T14:12:39.824Z,1.00
2022-08-17T14:15:08.313Z,1.20
2022-08-17T14:17:49.392Z,1.38
2022-08-17T14:20:20.057Z,1.27
2022-08-17T14:22:50.308Z,0.65
2022-08-17T14:25:22.409Z,1.00
2022-08-17T14:27:52.852Z,1.05
2022-08-17T14:30:25.317Z,0.95
2022-08-17T14:32:53.268Z,1.08
2022-08-17T14:35:22.662Z,1.00
2022-08-17T14:37:50.775Z,0.90
2022-08-17T14:40:20.979Z,1.33
2022-08-17T14:42:48.371Z,1.23
2022-08-17T14:45:30.335Z,1.63
2022-08-17T14:48:01.147Z,1.30
2022-08-17T14:50:28.090Z,1.20
2022-08-17T14:52:58.344Z,1.02
2022-08-17T14:55:26.301Z,1.15
2022-08-17T14:57:53.464Z,1.23
2022-08-17T15:00:20.851Z,0.93
2022-08-17T15:02:56.515Z,0.80
2022-08-17T15:05:26.187Z,0.90
2022-08-17T15:07:53.992Z,1.23
2022-08-17T15:10:21.044Z,1.00
2022-08-17T15:12:48.080Z,1.10
2022-08-17T15:15:17.065Z,1.13
2022-08-17T15:17:45.929Z,1.85
2022-08-17T15:20:16.011Z,1.20
2022-08-17T15:22:45.064Z,1.10
2022-08-17T15:25:12.963Z,1.10
2022-08-17T15:27:40.469Z,1.40
2022-08-17T15:30:09.519Z,1.13
2022-08-17T15:32:38.936Z,1.20
2022-08-17T15:35:08.949Z,1.13
2022-08-17T15:37:36.430Z,1.67
2022-08-17T15:40:04.173Z,1.20
2022-08-17T15:42:31.399Z,1.08
2022-08-17T15:44:59.973Z,1.00
2022-08-17T15:47:26.994Z,1.05
2022-08-17T15:49:59.484Z,1.10
2022-08-17T15:52:30.151Z,0.85
2022-08-17T15:55:00.109Z,1.65
2022-08-17T15:57:28.196Z,1.48
2022-08-17T15:59:58.905Z,1.10
2022-08-17T16:03:44.836Z,1.10
2022-08-17T16:05:24.828Z,1.17
2022-08-17T16:07:52.585Z,1.45
2022-08-17T16:10:20.092Z,0.82
2022-08-17T16:12:49.055Z,1.20
2022-08-17T16:15:17.193Z,0.98
2022-08-17T16:17:44.384Z,1.42
2022-08-17T16:20:20.526Z,1.10
2022-08-17T16:22:49.009Z,1.23
2022-08-17T16:25:19.980Z,0.80
2022-08-17T16:27:49.533Z,1.00
2022-08-17T16:30:18.205Z,1.35
2022-08-17T16:32:45.772Z,1.10
2022-08-17T16:35:17.093Z,1.00
2022-08-17T16:37:45.691Z,1.30
2022-08-17T16:40:14.365Z,1.02
2022-08-17T16:42:43.385Z,1.05
2022-08-17T16:45:13.118Z,0.95
2022-08-17T16:47:42.072Z,1.50
2022-08-17T16:50:12.294Z,1.30
2022-08-17T16:52:39.937Z,1.30
2022-08-17T16:55:09.469Z,1.10
2022-08-17T16:57:49.906Z,1.40
2022-08-17T17:00:19.513Z,1.77
2022-08-17T17:02:48.686Z,1.33
2022-08-17T17:05:43.990Z,1.35
2022-08-17T17:08:33.528Z,1.00
2022-08-17T17:11:22.486Z,1.45
2022-08-17T17:14:00.059Z,1.20
2022-08-17T17:16:32.266Z,0.93
2022-08-17T17:19:10.237Z,1.42
2022-08-17T17:22:05.245Z,1.40
2022-08-17T17:25:10.480Z,1.67
2022-08-17T17:27:40.190Z,1.23
2022-08-17T17:30:09.890Z,1.25
2022-08-17T17:32:39.901Z,0.85
2022-08-17T17:35:20.834Z,1.55
2022-08-17T17:37:48.679Z,1.25
2022-08-17T17:40:39.084Z,1.45
2022-08-17T17:43:36.964Z,1.27
2022-08-17T17:46:07.699Z,1.10
2022-08-17T17:48:51.127Z,1.40
2022-08-17T17:52:05.893Z,1.17
2022-08-17T17:54:29.525Z,1.15
2022-08-17T17:57:07.597Z,1.20
2022-08-17T18:00:05.373Z,1.33
2022-08-17T18:02:56.713Z,1.33
2022-08-17T18:05:44.419Z,1.27
2022-08-17T18:08:34.695Z,1.17
2022-08-17T18:11:14.097Z,1.60
2022-08-17T18:14:06.981Z,1.25
2022-08-17T18:16:35.203Z,1.73
2022-08-17T18:19:02.157Z,1.33
2022-08-17T18:21:37.907Z,1.35
2022-08-17T18:24:08.121Z,1.40
2022-08-17T18:26:50.271Z,1.15
2022-08-17T18:29:32.099Z,1.30
2022-08-17T18:32:21.018Z,1.10
2022-08-17T18:34:57.050Z,1.13
2022-08-17T18:39:59.383Z,1.38
2022-08-17T18:42:29.138Z,1.15
2022-08-17T18:44:56.498Z,1.15
2022-08-17T18:47:25.688Z,1.10
2022-08-17T18:49:57.903Z,0.93
2022-08-17T18:52:32.036Z,1.25
2022-08-17T18:55:14.345Z,1.38
2022-08-17T18:57:43.155Z,1.00
2022-08-17T19:00:36.986Z,1.40
2022-08-17T19:03:19.375Z,1.65
2022-08-17T19:05:56.649Z,1.40
2022-08-17T19:08:29.544Z,1.30
2022-08-17T19:11:03.790Z,2.67
2022-08-17T19:13:42.763Z,1.20
2022-08-17T19:16:26.948Z,0.90
2022-08-17T19:18:58.716Z,1.33
2022-08-17T19:21:50.664Z,1.92
2022-08-17T19:24:20.499Z,1.38
2022-08-17T19:26:55.014Z,1.33
2022-08-17T19:30:04.010Z,1.33
2022-08-17T19:32:35.886Z,1.45
2022-08-17T19:35:05.934Z,1.40
2022-08-17T19:37:39.119Z,1.55
2022-08-17T19:40:24.397Z,1.98
2022-08-17T19:43:18.298Z,1.50
2022-08-17T19:46:07.658Z,1.40
2022-08-17T19:49:22.783Z,1.98
2022-08-17T19:52:19.125Z,1.30
2022-08-17T19:54:56.626Z,1.25
2022-08-17T19:57:45.126Z,2.55
2022-08-17T20:00:17.154Z,1.50
2022-08-17T20:02:49.602Z,1.30
2022-08-17T20:05:19.519Z,1.52
2022-08-17T20:07:58.060Z,1.65
2022-08-17T20:10:36.581Z,1.55
2022-08-17T20:13:08.770Z,1.88
2022-08-17T20:15:40.849Z,1.48
2022-08-17T20:18:18.532Z,1.35
2022-08-17T20:20:55.722Z,1.38
2022-08-17T20:23:22.778Z,1.40
2022-08-17T20:26:22.919Z,1.65
2022-08-17T20:29:14.600Z,1.90
2022-08-17T20:31:50.774Z,1.50
2022-08-17T20:34:36.907Z,1.55
2022-08-17T20:37:10.758Z,1.27
2022-08-17T20:39:44.083Z,1.45
2022-08-17T20:42:20.467Z,1.50
2022-08-17T20:44:51.013Z,1.30
2022-08-17T20:47:29.081Z,1.77
2022-08-17T20:50:15.188Z,1.55
2022-08-17T20:52:50.942Z,1.30
2022-08-17T20:55:36.470Z,1.60
2022-08-17T20:58:30.636Z,1.48
2022-08-17T21:00:58.936Z,1.40
2022-08-17T21:03:32.257Z,1.42
2022-08-17T21:06:19.742Z,1.38
2022-08-17T21:09:16.264Z,1.88
2022-08-17T21:12:03.187Z,1.58
2022-08-17T21:14:59.781Z,1.35
2022-08-17T21:17:47.068Z,2.33
2022-08-17T21:20:32.550Z,1.38
2022-08-17T21:23:21.490Z,1.57
2022-08-17T21:26:30.656Z,1.33
2022-08-17T21:29:31.286Z,2.10
2022-08-17T21:32:00.625Z,1.55
2022-08-17T21:34:43.208Z,1.67
2022-08-17T21:37:23.547Z,1.20
2022-08-17T21:39:55.561Z,1.27
2022-08-17T21:42:29.189Z,1.42
2022-08-17T21:45:08.034Z,1.58
2022-08-17T21:47:35.115Z,1.98
2022-08-17T21:50:25.173Z,1.60
2022-08-17T21:52:56.630Z,1.33
2022-08-17T21:55:30.482Z,1.25
2022-08-17T21:58:14.289Z,1.10
2022-08-17T22:00:44.735Z,1.50
2022-08-17T22:03:24.423Z,1.63
2022-08-17T22:05:51.554Z,1.60
2022-08-17T22:08:21.326Z,1.35
2022-08-17T22:10:50.738Z,1.23
2022-08-17T22:13:17.849Z,1.33
2022-08-17T22:15:47.711Z,1.30
2022-08-17T22:18:22.112Z,1.42
2022-08-17T22:20:54.804Z,1.80
2022-08-17T22:23:51.185Z,1.73
2022-08-17T22:26:20.016Z,1.83
2022-08-17T22:28:46.934Z,1.73
2022-08-17T22:31:19.976Z,1.63
2022-08-17T22:34:00.418Z,1.63
2022-08-17T22:36:28.927Z,1.73
2022-08-17T22:38:59.613Z,1.55
2022-08-17T22:41:48.103Z,1.83
2022-08-17T22:44:23.366Z,2.22
2022-08-17T22:47:23.055Z,1.73
2022-08-17T22:50:01.802Z,1.60
2022-08-17T22:53:02.666Z,1.45
2022-08-17T22:55:52.788Z,1.40
2022-08-17T22:58:41.926Z,1.40
2022-08-17T23:01:32.494Z,1.42
2022-08-17T23:04:02.834Z,1.77
2022-08-17T23:06:33.865Z,1.45
2022-08-17T23:09:03.744Z,1.38
2022-08-17T23:11:48.714Z,1.60
2022-08-17T23:14:19.923Z,0.98
2022-08-17T23:16:51.031Z,1.50
2022-08-17T23:19:20.700Z,1.52
2022-08-17T23:21:55.277Z,1.60
2022-08-17T23:24:25.489Z,1.25
2022-08-17T23:26:53.425Z,1.40
2022-08-17T23:29:21.593Z,1.77
2022-08-17T23:31:52.419Z,1.35
2022-08-17T23:34:19.680Z,1.10
2022-08-17T23:36:52.255Z,1.15
2022-08-17T23:39:24.552Z,1.00
2022-08-17T23:41:54.503Z,1.20
2022-08-17T23:44:23.547Z,1.33
2022-08-17T23:46:51.481Z,1.45
2022-08-17T23:49:19.200Z,1.70
2022-08-17T23:51:47.880Z,1.75
2022-08-17T23:54:33.725Z,1.77
2022-08-17T23:57:02.012Z,1.08
2022-08-17T23:59:29.285Z,1.65
